createdAt,value
2017-04-01T14:42:29.840Z,19.50
2017-04-01T14:43:27.440Z,19.90
2017-04-01T14:44:25.094Z,20.30
2017-04-01T14:45:22.692Z,20.90
2017-04-01T14:46:20.292Z,21.30
2017-04-01T14:47:17.909Z,21.60
2017-04-01T14:48:15.662Z,21.80
2017-04-01T14:49:13.385Z,21.80
2017-04-01T14:50:11.808Z,21.70
2017-04-01T14:51:09.508Z,21.60
2017-04-01T14:52:07.353Z,21.60
2017-04-01T14:53:05.079Z,21.50
2017-04-01T14:54:02.803Z,21.30
2017-04-01T14:55:00.510Z,21.20
2017-04-01T14:55:58.154Z,21.10
2017-04-01T14:56:55.781Z,21.10
2017-04-01T14:57:53.387Z,20.90
2017-04-01T14:58:50.989Z,20.90
2017-04-01T14:59:49.450Z,20.80
2017-04-01T15:00:47.089Z,20.70
2017-04-01T15:01:44.693Z,20.70
2017-04-01T15:02:42.278Z,20.60
2017-04-01T15:03:39.840Z,20.60
2017-04-01T15:04:37.531Z,20.60
2017-04-01T15:05:35.223Z,20.50
2017-04-01T15:06:32.959Z,20.50
2017-04-01T15:07:30.605Z,20.60
2017-04-01T15:08:28.231Z,20.50
2017-04-01T15:09:25.977Z,20.50
2017-04-01T15:10:23.628Z,20.40
2017-04-01T15:11:21.284Z,20.40
2017-04-01T15:12:18.913Z,20.30
2017-04-01T15:13:16.554Z,20.20
2017-04-01T15:14:14.160Z,20.20
2017-04-01T15:15:11.836Z,20.10
2017-04-01T15:16:09.436Z,20.00
2017-04-01T15:17:07.217Z,20.00
2017-04-01T15:18:05.621Z,19.90
2017-04-01T15:19:03.294Z,19.80
2017-04-01T15:20:01.088Z,20.00
2017-04-01T15:20:58.889Z,20.20
2017-04-01T15:21:56.468Z,20.30
2017-04-01T15:22:54.078Z,20.20
2017-04-01T15:23:51.771Z,20.30
2017-04-01T15:24:49.481Z,20.30
2017-04-01T15:25:47.049Z,20.30
2017-04-01T15:26:44.753Z,20.30
2017-04-01T15:27:42.364Z,20.30
2017-04-01T15:28:40.004Z,20.30
2017-04-01T15:29:37.643Z,20.40
2017-04-01T15:30:35.291Z,20.40
2017-04-01T15:31:33.325Z,20.50
2017-04-01T15:32:30.965Z,20.50
2017-04-01T15:33:28.572Z,20.60
2017-04-01T15:34:26.222Z,20.60
2017-04-01T15:35:23.825Z,20.70
2017-04-01T15:36:22.249Z,20.60
2017-04-01T15:37:19.900Z,20.60
2017-04-01T15:38:17.484Z,20.70
2017-04-01T15:39:15.169Z,20.70
2017-04-01T15:40:12.778Z,20.70
2017-04-01T15:41:11.187Z,20.90
2017-04-01T15:42:08.806Z,20.90
2017-04-01T15:43:06.584Z,21.00
2017-04-01T15:44:05.187Z,20.90
2017-04-01T15:45:02.812Z,21.00
2017-04-01T15:46:00.669Z,21.10
2017-04-01T15:46:58.342Z,21.20
2017-04-01T15:47:55.956Z,21.30
2017-04-01T15:48:53.557Z,21.30
2017-04-01T15:49:51.170Z,21.50
2017-04-01T15:50:48.728Z,21.50
2017-04-01T15:51:46.497Z,21.50
2017-04-01T15:52:44.114Z,21.50
2017-04-01T15:53:41.786Z,21.50
2017-04-01T15:54:39.420Z,21.50
2017-04-01T15:55:36.997Z,21.50
2017-04-01T15:56:34.640Z,21.60
2017-04-01T15:57:32.282Z,21.50
2017-04-01T15:58:30.028Z,21.70
2017-04-01T15:59:28.405Z,21.80
2017-04-01T16:00:26.109Z,21.80
2017-04-01T16:01:24.039Z,21.80
2017-04-01T16:02:22.305Z,21.80
2017-04-01T16:03:20.008Z,21.80
2017-04-01T16:04:17.597Z,21.80
2017-04-01T16:05:15.680Z,21.80
2017-04-01T16:06:13.290Z,21.80
2017-04-01T16:07:10.981Z,21.80
2017-04-01T16:08:08.618Z,21.70
2017-04-01T16:09:06.353Z,21.70
2017-04-01T16:10:03.939Z,21.60
2017-04-01T16:11:01.559Z,21.70
2017-04-01T16:11:59.137Z,21.70
2017-04-01T16:12:56.766Z,21.70
2017-04-01T16:13:54.404Z,21.50
2017-04-01T16:14:51.985Z,21.50
2017-04-01T16:15:49.582Z,21.40
2017-04-01T16:16:47.196Z,21.30
2017-04-01T16:17:44.779Z,21.30
2017-04-01T16:18:42.534Z,21.20
2017-04-01T16:19:40.117Z,21.30
2017-04-01T16:20:37.744Z,21.40
2017-04-01T16:21:36.105Z,21.40
2017-04-01T16:22:33.830Z,21.30
2017-04-01T16:23:31.675Z,21.40
2017-04-01T16:24:29.345Z,21.50
2017-04-01T16:25:26.928Z,21.50
2017-04-01T16:26:24.564Z,21.50
2017-04-01T16:27:22.175Z,21.50
2017-04-01T16:28:19.745Z,21.30
2017-04-01T16:29:17.603Z,21.30
2017-04-01T16:30:15.390Z,21.20
2017-04-01T16:31:13.514Z,21.10
2017-04-01T16:32:11.117Z,21.00
2017-04-01T16:33:09.877Z,20.80
2017-04-01T16:34:08.229Z,20.50
2017-04-01T16:35:05.819Z,20.40
2017-04-01T16:36:03.515Z,20.30
2017-04-01T16:37:01.137Z,20.20
2017-04-01T16:37:58.741Z,20.00
2017-04-01T16:38:56.511Z,19.90
2017-04-01T16:39:54.866Z,19.80
2017-04-01T16:40:52.470Z,19.70
2017-04-01T16:41:50.151Z,19.50
2017-04-01T16:42:47.813Z,19.40
2017-04-01T16:43:45.388Z,19.30
2017-04-01T16:44:43.953Z,19.30
2017-04-01T16:45:42.381Z,19.20
2017-04-01T16:46:40.192Z,19.10
2017-04-01T16:47:37.884Z,19.00
2017-04-01T16:48:35.606Z,18.90
2017-04-01T16:49:33.259Z,18.90
2017-04-01T16:50:30.968Z,18.80
2017-04-01T16:51:28.547Z,18.70
2017-04-01T16:52:26.116Z,18.60
2017-04-01T16:53:23.737Z,18.50
2017-04-01T16:54:21.321Z,18.40
2017-04-01T16:55:18.923Z,18.40
2017-04-01T16:56:16.498Z,18.30
2017-04-01T16:57:14.090Z,18.20
2017-04-01T16:58:11.719Z,18.20
2017-04-01T16:59:09.411Z,18.20
2017-04-01T17:00:07.024Z,18.10
2017-04-01T17:01:04.697Z,18.00
2017-04-01T17:02:02.302Z,18.00
2017-04-01T17:02:59.953Z,18.00
2017-04-01T17:03:57.527Z,17.90
2017-04-01T17:04:55.157Z,17.90
2017-04-01T17:05:52.784Z,17.80
2017-04-01T17:06:51.004Z,17.70
2017-04-01T17:07:48.689Z,17.60
2017-04-01T17:08:46.276Z,17.60
2017-04-01T17:09:43.959Z,17.50
2017-04-01T17:10:41.569Z,17.50
2017-04-01T17:11:40.004Z,17.40
2017-04-01T17:12:37.609Z,17.40
2017-04-01T17:13:35.181Z,17.40
2017-04-01T17:14:32.851Z,17.40
2017-04-01T17:15:31.052Z,17.30
2017-04-01T17:16:28.667Z,17.40
2017-04-01T17:17:26.448Z,17.40
2017-04-01T17:18:24.068Z,17.40
2017-04-01T17:19:21.694Z,17.40
2017-04-01T17:20:19.496Z,17.40
2017-04-01T17:21:18.408Z,17.40
2017-04-01T17:22:17.525Z,17.30
2017-04-01T17:23:15.945Z,17.20
2017-04-01T17:24:13.570Z,17.20
2017-04-01T17:25:11.261Z,17.20
2017-04-01T17:26:09.632Z,17.20
2017-04-01T17:28:11.512Z,17.10
2017-04-01T17:29:09.207Z,17.00
2017-04-01T17:30:06.854Z,17.00
2017-04-01T17:31:04.436Z,16.90
2017-04-01T17:32:02.795Z,16.70
2017-04-01T17:33:00.369Z,16.70
2017-04-01T17:33:57.996Z,16.60
2017-04-01T17:34:55.797Z,16.60
2017-04-01T17:35:53.500Z,16.50
2017-04-01T17:36:51.982Z,16.40
2017-04-01T17:37:49.561Z,16.30
2017-04-01T17:38:47.959Z,16.20
2017-04-01T17:39:46.357Z,16.10
2017-04-01T17:40:43.939Z,16.10
2017-04-01T17:41:42.329Z,16.00
2017-04-01T17:42:39.937Z,16.00
2017-04-01T17:43:38.316Z,15.90
2017-04-01T17:44:36.786Z,15.90
2017-04-01T17:45:34.496Z,15.80
2017-04-01T17:46:32.136Z,15.80
2017-04-01T17:47:29.727Z,15.80
2017-04-01T17:48:27.630Z,15.70
2017-04-01T17:49:25.480Z,15.70
2017-04-01T17:50:23.081Z,15.60
2017-04-01T17:51:20.862Z,15.60
2017-04-01T17:52:18.622Z,15.60
2017-04-01T17:53:16.265Z,15.60
2017-04-01T17:54:14.382Z,15.50
2017-04-01T17:55:11.966Z,15.50
2017-04-01T17:56:10.317Z,15.50
2017-04-01T17:57:07.978Z,15.50
2017-04-01T17:58:05.665Z,15.50
2017-04-01T17:59:03.526Z,15.50
2017-04-01T18:00:01.156Z,15.50
2017-04-01T18:00:59.575Z,15.40
2017-04-01T18:01:57.177Z,15.30
2017-04-01T18:02:55.564Z,15.40
2017-04-01T18:03:53.174Z,15.30
2017-04-01T18:04:50.766Z,15.40
2017-04-01T18:05:48.405Z,15.40
2017-04-01T18:06:46.081Z,15.30
2017-04-01T18:07:43.697Z,15.40
2017-04-01T18:08:42.178Z,15.50
2017-04-01T18:09:39.746Z,15.40
2017-04-01T18:10:37.311Z,15.60
2017-04-01T18:11:35.108Z,15.80
2017-04-01T18:12:33.077Z,16.40
2017-04-01T18:13:31.436Z,17.70
2017-04-01T18:14:29.015Z,17.60
2017-04-01T18:15:26.576Z,18.20
2017-04-01T18:16:24.124Z,18.60
2017-04-01T18:17:21.856Z,19.00
2017-04-01T18:18:20.188Z,19.60
2017-04-01T18:19:17.860Z,19.60
2017-04-01T18:20:15.429Z,19.90
2017-04-01T18:21:13.905Z,20.30
2017-04-01T18:22:11.500Z,20.30
2017-04-01T18:23:09.076Z,20.50
2017-04-01T18:24:06.644Z,20.60
2017-04-01T18:25:04.213Z,20.80
2017-04-01T18:26:01.877Z,20.90
2017-04-01T18:26:59.437Z,21.00
2017-04-01T18:27:56.979Z,21.10
2017-04-01T18:28:54.540Z,21.20
2017-04-01T18:29:52.097Z,21.30
2017-04-01T18:30:49.643Z,21.30
2017-04-01T18:31:48.006Z,21.40
2017-04-01T18:32:46.330Z,21.40
2017-04-01T18:33:43.896Z,21.40
2017-04-01T18:34:41.544Z,21.50
2017-04-01T18:35:39.169Z,21.50
2017-04-01T18:36:36.767Z,21.50
2017-04-01T18:37:34.347Z,21.40
2017-04-01T18:38:31.896Z,21.40
2017-04-01T18:39:29.455Z,21.40
2017-04-01T18:40:27.044Z,21.40
2017-04-01T18:41:24.591Z,21.40
2017-04-01T18:42:22.144Z,21.30
2017-04-01T18:43:19.752Z,21.20
2017-04-01T18:44:17.319Z,21.20
2017-04-01T18:45:14.887Z,21.10
2017-04-01T18:46:12.494Z,21.10
2017-04-01T18:47:10.104Z,21.10
2017-04-01T18:48:07.828Z,21.00
2017-04-01T18:49:05.486Z,20.90
2017-04-01T18:50:03.084Z,20.90
2017-04-01T18:51:00.696Z,21.00
2017-04-01T18:51:58.255Z,21.00
2017-04-01T18:52:55.823Z,21.10
2017-04-01T18:53:53.393Z,21.20
2017-04-01T18:54:51.032Z,21.20
2017-04-01T18:55:48.615Z,21.30
2017-04-01T18:56:46.164Z,21.30
2017-04-01T18:57:44.652Z,21.40
2017-04-01T18:58:42.209Z,21.30
2017-04-01T18:59:39.893Z,21.20
2017-04-01T19:00:38.969Z,21.20
2017-04-01T19:01:36.621Z,21.10
2017-04-01T19:02:34.172Z,21.10
2017-04-01T19:03:31.734Z,21.00
2017-04-01T19:04:29.528Z,21.00
2017-04-01T19:05:27.076Z,21.10
2017-04-01T19:06:24.800Z,21.10
2017-04-01T19:07:22.359Z,21.10
2017-04-01T19:08:19.916Z,21.20
2017-04-01T19:09:17.564Z,21.20
2017-04-01T19:10:15.109Z,21.20
2017-04-01T19:11:12.668Z,21.30
2017-04-01T19:12:10.310Z,21.40
2017-04-01T19:13:07.873Z,21.40
2017-04-01T19:14:05.436Z,21.50
2017-04-01T19:15:03.812Z,21.50
2017-04-01T19:16:01.375Z,21.50
2017-04-01T19:16:59.609Z,21.50
2017-04-01T19:17:59.180Z,21.50
2017-04-01T19:18:56.919Z,21.60
2017-04-01T19:19:54.546Z,21.60
2017-04-01T19:20:52.223Z,21.70
2017-04-01T19:21:49.773Z,21.80
2017-04-01T19:22:48.754Z,21.80
2017-04-01T19:23:46.295Z,21.90
2017-04-01T19:24:43.833Z,22.00
2017-04-01T19:25:41.436Z,22.00
2017-04-01T19:26:39.839Z,22.10
2017-04-01T19:27:37.379Z,22.10
2017-04-01T19:28:35.913Z,22.20
2017-04-01T19:29:33.501Z,22.20
2017-04-01T19:30:31.112Z,22.30
2017-04-01T19:31:28.971Z,22.40
2017-04-01T19:32:26.580Z,22.50
2017-04-01T19:33:24.148Z,22.60
2017-04-01T19:34:21.703Z,22.60
2017-04-01T19:35:19.931Z,22.70
2017-04-01T19:36:18.760Z,22.70
2017-04-01T19:37:16.315Z,22.70
2017-04-01T19:38:13.979Z,22.70
2017-04-01T19:39:12.280Z,22.80
2017-04-01T19:40:09.885Z,22.80
2017-04-01T19:41:07.756Z,22.80
2017-04-01T19:42:06.809Z,22.90
2017-04-01T19:43:04.527Z,22.90
2017-04-01T19:44:03.580Z,23.10
2017-04-01T19:45:01.303Z,23.10
2017-04-01T19:45:58.893Z,23.20
2017-04-01T19:46:56.908Z,23.20
2017-04-01T19:47:54.520Z,23.20
2017-04-01T19:48:52.089Z,23.20
2017-04-01T19:49:50.095Z,23.10
2017-04-01T19:50:47.744Z,23.10
2017-04-01T19:51:46.116Z,23.10
2017-04-01T19:52:43.663Z,23.00
2017-04-01T19:53:41.988Z,23.10
2017-04-01T19:54:39.528Z,23.00
2017-04-01T19:55:37.072Z,23.10
2017-04-01T19:56:34.631Z,23.10
2017-04-01T19:57:32.305Z,23.10
2017-04-01T19:58:29.879Z,23.10
2017-04-01T19:59:27.432Z,22.90
2017-04-01T20:00:25.020Z,22.80
2017-04-01T20:01:22.560Z,22.80
2017-04-01T20:02:20.152Z,22.80
2017-04-01T20:03:18.521Z,22.70
2017-04-01T20:04:16.067Z,22.70
